Time;durP1;ratioP1;P1;durP2;ratioP2;P2;SDS_P1;SDS_P2;PMS_P1;PMS_P2;Temp;Humidity;BMP_temperature;BMP_pressure;BME280_temperature;BME280_humidity;BME280_pressure;Samples;Min_cycle;Max_cycle;Signal;HPM_P1;HPM_P2
2021/08/04 00:01:29;;;;;;;27.17;15.00;;;;;;;22.89;74.00;101055.18;1806738;79;21095;-63
2021/08/04 00:03:57;;;;;;;20.70;12.80;;;;;;;22.84;74.09;101059.59;1806611;79;21033;-63
2021/08/04 00:06:26;;;;;;;17.82;11.20;;;;;;;22.81;74.18;101065.71;1806592;79;21045;-63
2021/08/04 00:08:57;;;;;;;18.00;11.25;;;;;;;22.75;74.31;101059.88;1806553;79;21001;-63
2021/08/04 00:11:26;;;;;;;18.25;10.25;;;;;;;22.70;74.47;101063.47;1806578;79;21575;-63
2021/08/04 00:13:55;;;;;;;16.37;11.33;;;;;;;22.66;74.68;101062.51;1806614;79;21779;-63
2021/08/04 00:16:24;;;;;;;20.05;11.08;;;;;;;22.61;74.95;101066.06;1806680;79;21069;-63
2021/08/04 00:18:53;;;;;;;17.17;10.90;;;;;;;22.52;75.16;101067.22;1806625;79;21033;-63
2021/08/04 00:21:22;;;;;;;18.98;12.05;;;;;;;22.43;75.39;101066.66;1806555;79;21033;-63
2021/08/04 00:23:51;;;;;;;23.70;12.45;;;;;;;22.39;75.66;101065.69;1806478;79;21168;-63
2021/08/04 00:26:19;;;;;;;25.45;13.90;;;;;;;22.35;75.74;101062.41;1806597;79;21029;-62
2021/08/04 00:28:49;;;;;;;21.15;12.70;;;;;;;22.34;75.71;101061.56;1806604;79;21065;-62
2021/08/04 00:31:18;;;;;;;23.25;12.90;;;;;;;22.31;75.64;101056.44;1806595;79;21045;-62
2021/08/04 00:33:46;;;;;;;17.30;11.95;;;;;;;22.28;75.63;101051.83;1806723;79;21057;-62
2021/08/04 00:36:15;;;;;;;20.52;12.03;;;;;;;22.24;75.71;101050.35;1806507;79;21080;-63
2021/08/04 00:38:45;;;;;;;17.35;11.28;;;;;;;22.21;75.71;101052.81;1806572;79;21582;-62
2021/08/04 00:41:14;;;;;;;19.10;12.47;;;;;;;22.17;75.87;101051.38;1806612;79;21135;-62
2021/08/04 00:43:43;;;;;;;18.15;11.73;;;;;;;22.16;75.77;101065.25;1806642;79;21037;-62
2021/08/04 00:46:15;;;;;;;23.20;13.32;;;;;;;22.12;75.73;101077.22;1806588;79;21056;-62
2021/08/04 00:48:45;;;;;;;29.32;17.30;;;;;;;22.09;75.84;101072.59;1806762;79;21057;-63
2021/08/04 00:51:14;;;;;;;23.40;15.63;;;;;;;22.07;76.05;101078.58;1789788;79;21186;-63
2021/08/04 00:53:43;;;;;;;23.00;13.58;;;;;;;22.07;76.12;101097.34;1782037;80;21068;-63
2021/08/04 00:56:12;;;;;;;23.30;14.03;;;;;;;22.04;76.27;101095.78;1782010;80;21153;-63
2021/08/04 00:58:44;;;;;;;19.52;13.05;;;;;;;22.01;76.44;101093.84;1781971;79;21161;-64
2021/08/04 01:01:21;;;;;;;26.33;14.00;;;;;;;21.99;76.52;101099.31;1781985;80;21079;-63
2021/08/04 01:04:05;;;;;;;22.55;14.10;;;;;;;21.98;76.50;101105.17;1781948;80;21145;-63
2021/08/04 01:06:39;;;;;;;24.82;12.73;;;;;;;21.99;76.39;101097.98;1781988;80;21083;-62
2021/08/04 01:09:11;;;;;;;18.25;12.30;;;;;;;21.97;76.34;101096.76;1782090;80;21119;-62
2021/08/04 01:11:42;;;;;;;20.32;12.47;;;;;;;21.96;76.30;101092.86;1782012;80;21129;-62
2021/08/04 01:14:14;;;;;;;23.20;12.15;;;;;;;21.96;76.16;101087.49;1781943;80;21666;-62
2021/08/04 01:16:46;;;;;;;20.30;11.33;;;;;;;21.94;76.06;101088.95;1781964;80;21142;-62
2021/08/04 01:19:34;;;;;;;20.57;11.45;;;;;;;21.93;76.01;101079.69;1781999;79;21087;-62
2021/08/04 01:22:23;;;;;;;23.12;12.73;;;;;;;21.91;75.91;101078.50;1781963;80;21568;-62
2021/08/04 01:24:58;;;;;;;19.15;11.68;;;;;;;21.89;75.84;101090.31;1782002;80;21157;-62
2021/08/04 01:27:29;;;;;;;19.98;12.20;;;;;;;21.83;75.93;101083.63;1782082;80;21111;-63
2021/08/04 01:30:00;;;;;;;20.70;12.70;;;;;;;21.78;76.09;101082.67;1781923;80;21091;-61
2021/08/04 01:32:29;;;;;;;17.90;12.45;;;;;;;21.77;76.29;101082.78;1781994;80;21071;-64
2021/08/04 01:35:00;;;;;;;20.52;12.45;;;;;;;21.74;76.46;101081.69;1781995;80;21632;-62
2021/08/04 01:37:29;;;;;;;24.85;12.35;;;;;;;21.70;76.63;101085.09;1781915;80;21056;-62
2021/08/04 01:40:00;;;;;;;20.43;12.95;;;;;;;21.69;76.81;101095.94;1781882;80;21486;-63
2021/08/04 01:42:35;;;;;;;24.47;12.65;;;;;;;21.67;76.98;101097.89;1762175;80;21043;-63
2021/08/04 01:45:06;;;;;;;17.35;11.35;;;;;;;21.65;77.07;101098.01;1781819;80;21053;-63
2021/08/04 01:47:36;;;;;;;20.32;12.37;;;;;;;21.67;76.98;101105.93;1782071;80;21059;-62
2021/08/04 01:50:06;;;;;;;23.85;13.32;;;;;;;21.66;76.99;101108.27;1781925;80;21154;-62
2021/08/04 01:52:37;;;;;;;17.55;12.47;;;;;;;21.66;77.00;101105.58;1810680;79;21138;-62
2021/08/04 01:55:09;;;;;;;19.32;11.73;;;;;;;21.66;77.17;101117.14;1812229;79;21540;-63
2021/08/04 01:57:41;;;;;;;15.38;10.75;;;;;;;21.67;77.10;101124.22;1812199;79;21040;-63
2021/08/04 02:00:12;;;;;;;21.30;13.05;;;;;;;21.69;77.04;101123.61;1812483;79;21475;-63
2021/08/04 02:02:45;;;;;;;18.12;11.30;;;;;;;21.69;77.04;101120.93;1794152;79;21037;-63
2021/08/04 02:05:14;;;;;;;20.10;12.15;;;;;;;21.70;76.97;101121.77;1812343;79;21064;-63
2021/08/04 02:08:00;;;;;;;16.87;12.05;;;;;;;21.69;76.93;101122.73;1812315;79;21032;-63
2021/08/04 02:10:44;;;;;;;21.62;12.68;;;;;;;21.66;77.04;101116.30;1812296;79;21028;-63
2021/08/04 02:13:18;;;;;;;21.68;13.18;;;;;;;21.60;77.14;101116.31;1810196;79;21475;-63
2021/08/04 02:15:50;;;;;;;24.27;16.40;;;;;;;21.58;77.12;101116.42;1812518;79;21186;-63
2021/08/04 02:18:21;;;;;;;27.90;15.03;;;;;;;21.54;77.21;101116.31;1812306;79;21017;-63
2021/08/04 02:20:52;;;;;;;29.12;17.48;;;;;;;21.54;77.24;101116.77;1812238;79;21136;-63
2021/08/04 02:23:24;;;;;;;31.12;19.52;;;;;;;21.51;77.27;101115.20;1812402;79;21028;-63
2021/08/04 02:25:55;;;;;;;31.30;18.98;;;;;;;21.49;77.41;101113.13;1812301;79;21057;-63
2021/08/04 02:28:30;;;;;;;34.08;18.27;;;;;;;21.49;77.67;101111.80;1812297;79;21070;-63
2021/08/04 02:31:00;;;;;;;29.85;16.97;;;;;;;21.50;77.75;101120.18;1812116;79;21047;-64
2021/08/04 02:33:30;;;;;;;37.50;20.60;;;;;;;21.48;77.91;101113.25;1812485;79;21127;-63
2021/08/04 02:36:00;;;;;;;34.55;22.50;;;;;;;21.48;77.95;101115.44;1812292;79;21585;-62
2021/08/04 02:38:30;;;;;;;30.27;21.12;;;;;;;21.50;78.05;101126.88;1812299;79;21574;-63
2021/08/04 02:41:01;;;;;;;34.18;21.82;;;;;;;21.51;77.92;101121.05;1812313;79;21052;-63
2021/08/04 02:43:31;;;;;;;35.70;21.77;;;;;;;21.53;77.78;101129.82;1812216;79;21103;-63
2021/08/04 02:46:01;;;;;;;43.87;30.80;;;;;;;21.48;77.88;101126.15;1812478;79;21095;-62
2021/08/04 02:48:31;;;;;;;56.88;43.05;;;;;;;21.44;78.02;101132.70;1812303;79;21523;-63
2021/08/04 02:51:05;;;;;;;46.23;36.98;;;;;;;21.46;77.91;101133.95;1812220;79;21447;-63
2021/08/04 02:53:34;;;;;;;49.88;36.77;;;;;;;21.52;77.78;101137.48;1806645;79;21119;-62
2021/08/04 02:56:03;;;;;;;45.73;31.15;;;;;;;21.56;77.63;101138.94;1806569;79;21119;-63
2021/08/04 02:58:36;;;;;;;33.67;21.48;;;;;;;21.53;77.62;101140.04;1806604;79;21037;-62
2021/08/04 03:01:03;;;;;;;29.25;17.87;;;;;;;21.50;77.71;101138.94;1806434;79;21009;-62
2021/08/04 03:03:31;;;;;;;24.40;15.88;;;;;;;21.51;77.63;101144.67;1806735;79;21491;-62
2021/08/04 03:06:00;;;;;;;27.98;17.25;;;;;;;21.52;77.57;101145.02;1806722;79;21008;-63
2021/08/04 03:08:29;;;;;;;35.85;24.55;;;;;;;21.62;77.42;101151.02;1806701;79;21005;-63
2021/08/04 03:10:58;;;;;;;27.98;22.77;;;;;;;21.75;77.01;101149.06;1806742;79;21069;-63
2021/08/04 03:13:28;;;;;;;32.15;25.23;;;;;;;21.79;76.80;101155.87;1806601;79;21052;-62
2021/08/04 03:15:57;;;;;;;32.10;26.05;;;;;;;21.85;76.76;101162.58;1806747;79;21029;-62
2021/08/04 03:18:26;;;;;;;34.55;26.42;;;;;;;21.91;76.66;101170.11;1806589;79;21033;-62
2021/08/04 03:20:55;;;;;;;32.55;22.10;;;;;;;22.03;76.50;101169.63;1806547;79;21028;-62
2021/08/04 03:23:23;;;;;;;28.23;18.75;;;;;;;22.15;76.37;101167.28;1806532;79;21151;-62
2021/08/04 03:25:53;;;;;;;29.42;20.20;;;;;;;22.27;76.11;101170.34;1806572;79;21045;-62
2021/08/04 03:28:21;;;;;;;28.70;15.40;;;;;;;22.33;75.71;101170.33;1806681;79;21029;-62
2021/08/04 03:30:50;;;;;;;22.37;13.80;;;;;;;22.35;75.57;101174.61;1806584;79;21037;-62
2021/08/04 03:33:19;;;;;;;29.18;17.07;;;;;;;22.42;75.35;101174.94;1806593;79;21048;-62
2021/08/04 03:35:48;;;;;;;52.73;29.63;;;;;;;22.50;75.09;101182.34;1806542;79;21135;-61
2021/08/04 03:38:16;;;;;;;52.03;25.50;;;;;;;22.54;74.81;101186.01;1806575;79;21144;-61
2021/08/04 03:40:45;;;;;;;53.42;26.80;;;;;;;22.67;74.74;101183.66;1806581;79;21037;-62
2021/08/04 03:43:14;;;;;;;52.70;25.23;;;;;;;22.81;74.66;101183.83;1806589;79;21061;-62
2021/08/04 03:45:43;;;;;;;37.98;20.00;;;;;;;22.98;74.34;101192.68;1806590;79;21057;-62
2021/08/04 03:48:11;;;;;;;43.15;21.55;;;;;;;23.10;74.07;101190.30;1806527;79;21040;-62
2021/08/04 03:50:40;;;;;;;25.80;15.28;;;;;;;23.25;73.76;101194.02;1806552;79;21085;-62
2021/08/04 03:53:09;;;;;;;23.92;13.40;;;;;;;23.36;73.58;101191.26;1806711;79;21092;-62
2021/08/04 03:55:37;;;;;;;27.75;14.07;;;;;;;23.47;73.07;101185.80;1806706;79;21005;-62
2021/08/04 03:58:06;;;;;;;25.50;13.60;;;;;;;23.60;72.55;101188.78;1806727;79;21156;-63
2021/08/04 04:00:35;;;;;;;24.70;14.73;;;;;;;23.73;72.19;101188.55;1806434;79;21041;-62
2021/08/04 04:03:03;;;;;;;27.82;16.55;;;;;;;23.87;71.67;101188.23;1806613;79;21061;-61
2021/08/04 04:05:32;;;;;;;31.55;18.30;;;;;;;24.02;71.10;101188.20;1806588;79;21033;-62
2021/08/04 04:08:01;;;;;;;24.87;14.00;;;;;;;24.23;70.62;101193.48;1806603;79;21029;-64
2021/08/04 04:10:29;;;;;;;22.02;13.15;;;;;;;24.47;70.13;101192.27;1806555;79;21037;-63
2021/08/04 04:12:58;;;;;;;24.37;15.35;;;;;;;24.65;69.51;101191.96;1806623;79;21040;-63
2021/08/04 04:15:27;;;;;;;25.00;12.43;;;;;;;24.85;68.88;101193.33;1806521;79;21144;-63
2021/08/04 04:17:56;;;;;;;19.45;11.88;;;;;;;25.03;68.14;101194.31;1806542;79;21033;-63
2021/08/04 04:20:25;;;;;;;26.05;16.48;;;;;;;25.20;67.66;101195.42;1806608;79;21095;-63
2021/08/04 04:22:53;;;;;;;25.72;15.45;;;;;;;25.38;67.18;101187.48;1806604;79;21060;-63
2021/08/04 04:25:22;;;;;;;21.15;11.80;;;;;;;25.61;66.74;101189.31;1806582;79;21103;-63
2021/08/04 04:27:51;;;;;;;18.98;10.53;;;;;;;25.88;66.24;101193.05;1806427;79;21029;-63
2021/08/04 04:30:20;;;;;;;16.77;10.82;;;;;;;26.06;65.63;101190.45;1806528;79;21109;-62
2021/08/04 04:32:48;;;;;;;22.02;11.97;;;;;;;26.32;64.83;101196.45;1806570;79;21048;-62
2021/08/04 04:35:17;;;;;;;20.75;12.03;;;;;;;26.57;64.53;101193.02;1806569;79;21064;-63
2021/08/04 04:37:46;;;;;;;16.93;10.82;;;;;;;26.86;63.77;101193.83;1806600;79;21103;-62
2021/08/04 04:40:14;;;;;;;16.20;10.75;;;;;;;27.05;62.61;101199.55;1806486;79;21037;-63
2021/08/04 04:42:43;;;;;;;23.87;11.55;;;;;;;27.25;61.99;101205.11;1806656;79;20994;-62
2021/08/04 04:45:12;;;;;;;20.40;10.68;;;;;;;27.42;61.24;101214.73;1806567;79;21057;-62
2021/08/04 04:47:41;;;;;;;19.05;11.28;;;;;;;27.62;60.74;101209.44;1806571;79;21037;-63
2021/08/04 04:50:10;;;;;;;16.93;11.45;;;;;;;27.78;60.29;101211.88;1806537;79;21089;-63
2021/08/04 04:52:43;;;;;;;17.37;10.70;;;;;;;27.97;60.14;101219.80;1805263;79;21072;-64
2021/08/04 04:55:12;;;;;;;;;;;;;;;28.25;59.15;101219.57;1784729;80;21125;-63
2021/08/04 04:57:40;;;;;;;18.20;10.10;;;;;;;28.52;59.71;101227.95;1781927;80;20155;-63
2021/08/04 05:00:11;;;;;;;18.62;10.50;;;;;;;28.71;58.68;101229.53;1781966;80;21173;-63
2021/08/04 05:02:41;;;;;;;18.45;9.90;;;;;;;29.00;58.35;101221.44;1782118;80;21091;-62
2021/08/04 05:05:11;;;;;;;21.30;11.08;;;;;;;29.35;57.17;101215.34;1781895;80;21553;-63
2021/08/04 05:07:39;;;;;;;26.77;11.60;;;;;;;29.53;56.07;101214.64;1782027;80;21043;-63
2021/08/04 05:10:09;;;;;;;20.48;10.95;;;;;;;29.73;55.12;101215.58;1781967;80;21060;-63
2021/08/04 05:12:37;;;;;;;19.00;10.05;;;;;;;29.85;54.44;101214.23;1781965;80;21138;-63
2021/08/04 05:15:07;;;;;;;15.60;10.28;;;;;;;29.98;53.56;101214.51;1782161;80;21141;-64
2021/08/04 05:17:36;;;;;;;22.00;11.05;;;;;;;30.18;53.88;101221.72;1782054;80;21028;-63
2021/08/04 05:20:06;;;;;;;19.80;9.63;;;;;;;30.49;53.34;101226.34;1781870;80;21122;-63
2021/08/04 05:22:35;;;;;;;18.17;8.90;;;;;;;30.78;52.72;101222.93;1782037;80;21146;-63
2021/08/04 05:25:04;;;;;;;17.30;8.55;;;;;;;31.03;52.05;101234.99;1781915;80;21075;-63
2021/08/04 05:27:33;;;;;;;17.87;9.10;;;;;;;31.24;51.67;101236.17;1782034;80;21059;-63
2021/08/04 05:30:02;;;;;;;15.90;9.85;;;;;;;31.45;50.70;101230.88;1782061;80;21039;-63
2021/08/04 05:32:31;;;;;;;14.98;8.78;;;;;;;31.55;49.92;101226.54;1781946;80;21055;-63
2021/08/04 05:35:00;;;;;;;15.15;8.33;;;;;;;31.72;49.11;101219.91;1782038;80;21111;-63
2021/08/04 05:37:28;;;;;;;15.58;8.15;;;;;;;31.99;49.27;101212.60;1782022;80;21075;-63
2021/08/04 05:39:57;;;;;;;16.07;8.15;;;;;;;32.29;48.63;101213.41;1782041;80;21087;-63
2021/08/04 05:42:26;;;;;;;19.98;8.35;;;;;;;32.55;47.89;101215.58;1782061;80;21067;-63
2021/08/04 05:44:54;;;;;;;14.85;7.75;;;;;;;32.86;47.57;101215.82;1781960;80;21071;-63
2021/08/04 05:47:23;;;;;;;12.50;7.03;;;;;;;32.97;46.52;101215.29;1782128;80;21071;-63
2021/08/04 05:49:52;;;;;;;16.45;7.62;;;;;;;33.05;45.48;101221.98;1782135;80;21149;-63
2021/08/04 05:52:21;;;;;;;15.88;7.83;;;;;;;33.08;45.59;101220.20;1782056;80;21153;-63
2021/08/04 05:54:51;;;;;;;9.20;6.47;;;;;;;33.08;45.22;101218.84;1802895;79;21103;-63
2021/08/04 05:57:19;;;;;;;10.70;7.05;;;;;;;33.15;44.80;101223.03;1815111;79;21100;-63
2021/08/04 05:59:48;;;;;;;14.87;7.87;;;;;;;33.20;44.67;101218.33;1815152;79;21530;-63
2021/08/04 06:02:17;;;;;;;15.40;7.92;;;;;;;33.30;44.45;101221.58;1815286;79;21111;-62
2021/08/04 06:04:45;;;;;;;13.05;7.83;;;;;;;33.43;44.08;101218.09;1815162;79;21032;-63
2021/08/04 06:07:14;;;;;;;17.35;8.45;;;;;;;33.40;44.10;101213.89;1815161;79;21044;-63
2021/08/04 06:09:43;;;;;;;23.20;8.05;;;;;;;33.61;44.53;101219.79;1815150;79;21107;-63
2021/08/04 06:12:11;;;;;;;13.03;7.72;;;;;;;33.89;44.02;101220.82;1815032;79;21012;-63
2021/08/04 06:14:40;;;;;;;14.98;7.08;;;;;;;34.06;43.33;101222.14;1815160;79;21100;-63
2021/08/04 06:17:09;;;;;;;19.17;8.50;;;;;;;33.85;42.65;101225.84;1815237;79;21040;-63
2021/08/04 06:19:37;;;;;;;13.83;7.12;;;;;;;33.77;42.74;101225.49;1815156;79;21040;-63
2021/08/04 06:22:06;;;;;;;10.78;7.15;;;;;;;33.72;42.64;101225.25;1815189;79;21013;-63
2021/08/04 06:24:35;;;;;;;14.75;8.05;;;;;;;33.72;42.64;101225.25;1815279;79;21048;-63
2021/08/04 06:27:04;;;;;;;14.93;7.97;;;;;;;33.85;42.33;101217.65;1815160;79;21037;-63
2021/08/04 06:29:33;;;;;;;14.43;7.05;;;;;;;33.85;42.26;101221.22;1815144;79;21028;-63
2021/08/04 06:32:01;;;;;;;18.77;8.18;;;;;;;33.93;42.40;101223.46;1815120;79;21069;-63
2021/08/04 06:34:30;;;;;;;14.23;8.03;;;;;;;34.06;42.16;101220.78;1815159;79;21060;-63
2021/08/04 06:36:59;;;;;;;19.55;8.10;;;;;;;34.22;41.73;101219.09;1815063;79;21028;-63
2021/08/04 06:39:28;;;;;;;26.20;8.48;;;;;;;34.46;41.36;101216.85;1815326;79;21159;-63
2021/08/04 06:41:57;;;;;;;15.48;8.18;;;;;;;34.46;41.10;101212.75;1815148;79;21036;-63
2021/08/04 06:44:27;;;;;;;12.88;7.78;;;;;;;34.47;41.11;101203.48;1815168;79;21089;-63
2021/08/04 06:47:00;;;;;;;16.05;8.10;;;;;;;34.77;41.07;101212.74;1815214;79;21028;-63
2021/08/04 06:49:28;;;;;;;;;;;;;;;34.88;40.46;101212.12;1817806;79;21506;-63
2021/08/04 06:51:57;;;;;;;16.62;9.28;;;;;;;34.94;40.50;101207.16;1815139;79;20170;-63
2021/08/04 06:54:26;;;;;;;15.05;8.38;;;;;;;35.10;40.82;101218.73;1813702;79;21073;-62
2021/08/04 06:56:55;;;;;;;12.30;8.03;;;;;;;35.66;39.96;101212.79;1806615;79;21037;-63
2021/08/04 06:59:23;;;;;;;12.50;7.90;;;;;;;35.66;39.96;101212.79;1806621;79;21029;-63
2021/08/04 07:01:52;;;;;;;13.53;8.68;;;;;;;35.89;39.67;101210.11;1806581;79;21061;-64
2021/08/04 07:04:21;;;;;;;20.50;8.13;;;;;;;35.97;39.69;101215.36;1806554;79;21076;-63
2021/08/04 07:06:55;;;;;;;14.68;8.48;;;;;;;35.93;39.13;101214.95;1806723;79;21037;-63
2021/08/04 07:09:24;;;;;;;16.37;8.73;;;;;;;35.95;38.87;101210.63;1806820;79;21044;-63
2021/08/04 07:11:53;;;;;;;16.27;8.20;;;;;;;36.02;38.98;101216.90;1806593;79;21085;-63
2021/08/04 07:14:22;;;;;;;15.58;9.00;;;;;;;36.19;38.89;101212.33;1806594;79;21432;-63
2021/08/04 07:16:51;;;;;;;16.23;8.23;;;;;;;36.45;38.09;101216.30;1806553;79;21096;-63
2021/08/04 07:19:20;;;;;;;17.37;9.00;;;;;;;36.64;37.33;101214.48;1806617;79;21115;-62
2021/08/04 07:21:48;;;;;;;15.53;8.90;;;;;;;36.75;37.39;101206.11;1806627;79;21033;-63
2021/08/04 07:24:17;;;;;;;12.63;8.80;;;;;;;36.78;36.47;101204.30;1806598;79;21041;-63
2021/08/04 07:26:46;;;;;;;14.13;8.80;;;;;;;36.64;36.18;101208.17;1806595;79;21068;-63
2021/08/04 07:29:15;;;;;;;14.18;8.28;;;;;;;36.47;36.29;101208.70;1806678;79;21131;-63
2021/08/04 07:31:44;;;;;;;14.18;7.87;;;;;;;36.45;36.36;101217.67;1806577;79;21549;-62
2021/08/04 07:34:15;;;;;;;16.90;8.95;;;;;;;36.53;36.62;101210.55;1806686;79;21463;-63
2021/08/04 07:36:43;;;;;;;13.22;8.75;;;;;;;36.64;36.67;101206.25;1806739;79;21033;-62
2021/08/04 07:39:12;;;;;;;13.55;7.58;;;;;;;36.67;36.03;101209.14;1806589;79;21080;-62
2021/08/04 07:41:40;;;;;;;12.63;7.95;;;;;;;36.60;35.91;101206.94;1806646;79;21013;-62
2021/08/04 07:44:09;;;;;;;14.65;8.05;;;;;;;36.53;36.07;101194.62;1806584;79;21056;-63
2021/08/04 07:59:25;;;;;;;12.33;8.50;;;;;;;37.50;34.91;101191.52;1959041;73;22129;-61
2021/08/04 08:01:53;;;;;;;12.35;8.30;;;;;;;37.78;34.30;101186.05;1918287;75;21133;-61
2021/08/04 08:04:22;;;;;;;13.03;8.20;;;;;;;37.89;34.02;101184.45;1918205;75;21036;-61
2021/08/04 08:06:51;;;;;;;13.38;8.50;;;;;;;37.66;33.38;101197.82;1918360;75;21055;-61
2021/08/04 08:09:21;;;;;;;10.38;8.08;;;;;;;37.37;34.30;101194.39;1918374;75;21023;-61
2021/08/04 08:11:50;;;;;;;17.62;8.95;;;;;;;37.25;34.29;101191.02;1918282;74;21055;-62
2021/08/04 08:14:19;;;;;;;14.30;8.83;;;;;;;37.52;34.40;101180.28;1918276;75;21043;-62
2021/08/04 08:16:48;;;;;;;14.75;8.53;;;;;;;37.83;34.31;101184.30;1918128;74;21466;-62
2021/08/04 08:19:17;;;;;;;11.12;7.87;;;;;;;38.03;33.55;101178.55;1918369;75;21055;-61
2021/08/04 08:21:46;;;;;;;13.72;8.15;;;;;;;38.09;33.38;101181.44;1918266;75;21103;-61
2021/08/04 08:24:15;;;;;;;13.70;8.05;;;;;;;38.07;33.38;101178.06;1918272;75;21035;-61
2021/08/04 08:26:45;;;;;;;18.27;8.88;;;;;;;38.19;33.19;101183.11;1918286;73;21060;-61
2021/08/04 08:29:13;;;;;;;11.90;8.13;;;;;;;38.07;33.33;101177.55;1918165;75;21055;-62
2021/08/04 08:31:42;;;;;;;16.87;7.45;;;;;;;37.94;32.89;101179.94;1918250;75;21532;-61
2021/08/04 08:34:11;;;;;;;12.90;8.33;;;;;;;37.81;33.30;101176.82;1918265;75;21024;-61
2021/08/04 08:36:40;;;;;;;18.50;8.88;;;;;;;37.64;33.84;101182.07;1918241;75;21465;-61
2021/08/04 08:39:10;;;;;;;14.93;8.75;;;;;;;37.79;34.07;101177.56;1918343;74;21024;-61
2021/08/04 08:41:39;;;;;;;15.55;9.40;;;;;;;37.98;33.99;101172.89;1918248;74;21031;-62
2021/08/04 08:44:10;;;;;;;10.95;7.80;;;;;;;38.40;33.75;101172.97;1918241;75;21024;-61
2021/08/04 08:46:39;;;;;;;11.08;7.80;;;;;;;38.33;33.20;101169.99;1918243;75;21122;-61
2021/08/04 08:49:08;;;;;;;12.93;8.35;;;;;;;38.22;32.82;101159.28;1918251;75;21052;-61
2021/08/04 08:51:38;;;;;;;13.08;9.00;;;;;;;38.31;33.05;101162.00;1918359;75;21572;-61
2021/08/04 08:54:07;;;;;;;12.95;8.68;;;;;;;38.20;33.25;101162.77;1918351;75;21463;-62
2021/08/04 08:56:36;;;;;;;11.63;7.90;;;;;;;38.40;33.65;101161.11;1918236;75;21545;-61
2021/08/04 08:59:05;;;;;;;12.78;7.70;;;;;;;38.63;33.17;101157.61;1922033;74;21137;-62
2021/08/04 09:01:37;;;;;;;12.93;8.48;;;;;;;38.47;33.11;101161.02;1925267;74;21137;-61
2021/08/04 09:04:10;;;;;;;11.93;7.58;;;;;;;38.32;32.65;101145.78;1925533;74;21004;-61
2021/08/04 09:06:56;;;;;;;15.80;7.58;;;;;;;38.32;32.65;101145.78;1925231;74;21020;-62
2021/08/04 09:09:27;;;;;;;15.43;8.53;;;;;;;38.30;32.93;101152.61;1925001;74;21024;-61
2021/08/04 09:11:59;;;;;;;13.38;8.55;;;;;;;38.36;33.08;101148.36;1925027;74;21340;-61
2021/08/04 09:14:33;;;;;;;13.62;8.08;;;;;;;38.55;33.00;101146.94;1923323;74;21129;-61
2021/08/04 09:17:13;;;;;;;14.23;8.88;;;;;;;38.53;33.20;101144.93;1924517;74;21019;-62
2021/08/04 09:19:47;;;;;;;16.25;8.55;;;;;;;38.56;33.38;101145.33;1924624;74;21051;-62
2021/08/04 09:22:25;;;;;;;11.78;8.68;;;;;;;38.54;32.54;101137.83;1924645;74;21442;-61
2021/08/04 09:25:03;;;;;;;11.75;7.80;;;;;;;38.61;32.78;101137.76;1924648;74;21125;-61
2021/08/04 09:27:52;;;;;;;11.12;8.05;;;;;;;38.68;32.06;101135.73;1924513;74;21576;-62
2021/08/04 09:30:33;;;;;;;12.70;8.93;;;;;;;38.81;31.41;101134.12;1924608;74;21020;-62
2021/08/04 09:33:13;;;;;;;13.65;8.73;;;;;;;38.92;31.42;101128.84;1923802;74;21501;-62
2021/08/04 09:35:48;;;;;;;13.95;8.18;;;;;;;39.26;31.42;101124.42;1924712;74;21047;-63
2021/08/04 09:38:19;;;;;;;15.40;9.05;;;;;;;39.40;30.63;101130.52;1924718;74;21169;-62
2021/08/04 09:40:49;;;;;;;12.35;8.73;;;;;;;39.26;31.24;101124.98;1924840;74;21085;-62
2021/08/04 09:43:28;;;;;;;12.85;8.55;;;;;;;39.31;31.16;101123.72;1924622;74;21465;-61
2021/08/04 09:45:57;;;;;;;12.63;8.30;;;;;;;39.15;30.89;101123.91;1924631;74;21540;-62
2021/08/04 09:48:27;;;;;;;15.43;8.45;;;;;;;39.13;30.76;101126.06;1924509;74;21063;-62
2021/08/04 09:51:04;;;;;;;10.50;7.83;;;;;;;39.14;30.45;101125.83;1924695;74;21055;-62
2021/08/04 09:53:34;;;;;;;13.03;8.28;;;;;;;38.97;30.40;101123.47;1924767;74;21024;-61
2021/08/04 09:56:12;;;;;;;15.38;8.33;;;;;;;38.93;31.04;101118.14;1924736;74;21032;-61
2021/08/04 09:58:44;;;;;;;9.70;7.22;;;;;;;39.21;30.62;101114.67;1915600;74;21027;-62
2021/08/04 10:01:19;;;;;;;11.50;7.47;;;;;;;39.29;29.84;101117.59;1905209;75;21072;-61
2021/08/04 10:04:03;;;;;;;10.03;6.97;;;;;;;39.23;29.70;101117.19;1905311;75;21036;-62
2021/08/04 10:06:33;;;;;;;11.15;7.90;;;;;;;39.32;29.57;101108.30;1905225;75;21560;-62
2021/08/04 10:09:02;;;;;;;11.95;7.78;;;;;;;39.26;29.86;101108.45;1905457;75;21029;-62
2021/08/04 10:11:31;;;;;;;11.15;6.58;;;;;;;38.93;30.36;101105.21;1905283;75;21086;-62
2021/08/04 10:14:01;;;;;;;11.53;7.53;;;;;;;38.89;29.44;101110.08;1905335;75;21017;-62
2021/08/04 10:16:33;;;;;;;9.08;6.60;;;;;;;38.49;28.87;101110.18;1905257;75;21044;-62
2021/08/04 10:19:02;;;;;;;;;;;;;;;38.29;29.39;101098.67;1908028;75;21107;-62
2021/08/04 10:21:32;;;;;;;11.60;7.83;;;;;;;38.20;29.87;101091.29;1905159;75;20113;-62
2021/08/04 10:24:02;;;;;;;11.73;7.22;;;;;;;38.30;30.18;101091.56;1905150;75;21059;-62
2021/08/04 10:26:31;;;;;;;9.65;7.33;;;;;;;38.47;30.23;101084.83;1905220;75;21517;-62
2021/08/04 10:29:01;;;;;;;13.03;7.03;;;;;;;38.60;30.13;101096.17;1905231;75;21435;-62
2021/08/04 10:31:31;;;;;;;8.93;6.33;;;;;;;38.40;29.66;101089.08;1905324;75;21032;-62
2021/08/04 10:34:00;;;;;;;10.32;6.22;;;;;;;38.29;29.80;101090.42;1905361;74;21029;-62
2021/08/04 10:36:35;;;;;;;13.05;7.28;;;;;;;37.98;29.14;101090.44;1905137;75;21185;-62
2021/08/04 10:39:09;;;;;;;10.63;7.15;;;;;;;37.85;29.60;101084.59;1905202;75;21032;-62
2021/08/04 10:41:41;;;;;;;15.60;7.75;;;;;;;37.82;30.01;101080.93;1905222;75;21060;-62
2021/08/04 10:44:23;;;;;;;12.57;7.43;;;;;;;37.45;30.24;101087.00;1905520;74;21041;-62
2021/08/04 10:46:54;;;;;;;13.18;6.83;;;;;;;37.45;30.24;101087.00;1905130;75;21052;-62
2021/08/04 10:49:25;;;;;;;11.35;6.60;;;;;;;37.28;30.55;101084.87;1905220;74;21102;-62
2021/08/04 10:51:56;;;;;;;10.68;6.87;;;;;;;37.10;30.49;101082.09;1905372;75;21063;-62
2021/08/04 10:54:25;;;;;;;11.03;7.55;;;;;;;36.89;30.90;101075.98;1905572;75;21146;-63
2021/08/04 10:56:57;;;;;;;12.23;6.12;;;;;;;36.66;31.22;101082.61;1905308;75;21036;-62
2021/08/04 10:59:28;;;;;;;13.08;6.95;;;;;;;36.58;31.55;101085.64;1906390;74;21033;-63
2021/08/04 11:02:06;;;;;;;13.03;7.40;;;;;;;36.63;31.80;101086.65;1924958;74;21098;-63
2021/08/04 11:04:40;;;;;;;14.28;6.20;;;;;;;36.71;31.60;101085.55;1924567;74;21470;-62
2021/08/04 11:07:13;;;;;;;8.08;6.35;;;;;;;36.66;31.47;101083.97;1924704;74;21044;-62
2021/08/04 11:09:53;;;;;;;14.35;6.78;;;;;;;36.46;31.51;101084.14;1924481;74;21031;-63
2021/08/04 11:12:21;;;;;;;8.58;5.97;;;;;;;36.27;31.32;101080.50;1922608;74;21121;-62
2021/08/04 11:14:58;;;;;;;14.53;7.13;;;;;;;36.06;31.19;101081.14;1925056;74;21027;-62
2021/08/04 11:17:29;;;;;;;8.78;5.65;;;;;;;35.80;31.81;101078.55;1924612;74;21122;-62
2021/08/04 11:20:06;;;;;;;11.33;7.40;;;;;;;35.69;32.43;101078.20;1924491;74;21426;-64
2021/08/04 11:22:37;;;;;;;10.18;5.95;;;;;;;35.66;32.48;101068.17;1922907;74;21079;-63
2021/08/04 11:25:09;;;;;;;12.35;6.60;;;;;;;35.76;32.57;101067.19;1924572;74;21526;-62
2021/08/04 11:27:48;;;;;;;11.90;6.40;;;;;;;35.78;32.67;101056.02;1924703;74;21055;-62
2021/08/04 11:30:29;;;;;;;10.98;6.22;;;;;;;35.80;32.83;101064.34;1924548;74;21160;-62
2021/08/04 11:33:24;;;;;;;9.35;6.58;;;;;;;35.69;32.32;101065.88;1924552;74;21039;-63
2021/08/04 11:36:12;;;;;;;9.85;5.90;;;;;;;35.57;32.13;101056.09;1924607;74;21473;-62
2021/08/04 11:38:46;;;;;;;13.38;6.25;;;;;;;35.45;32.40;101054.25;1924581;74;21055;-62
2021/08/04 11:41:17;;;;;;;8.43;5.95;;;;;;;35.30;32.42;101054.02;1924535;74;21166;-63
2021/08/04 11:43:46;;;;;;;11.55;5.87;;;;;;;35.26;32.20;101045.89;1924464;74;21422;-62